createdAt,value
2023-03-12T00:03:33.688Z,83.85
2023-03-12T00:08:42.149Z,84.47
2023-03-12T00:13:53.605Z,84.94
2023-03-12T00:19:01.453Z,85.10
2023-03-12T00:24:10.346Z,85.19
2023-03-12T00:29:17.891Z,85.33
2023-03-12T00:34:25.812Z,85.14
2023-03-12T00:39:33.507Z,85.11
2023-03-12T00:44:41.646Z,84.79
2023-03-12T00:49:49.146Z,84.04
2023-03-12T00:54:59.155Z,83.22
2023-03-12T01:00:10.824Z,82.91
2023-03-12T01:05:19.631Z,82.32
2023-03-12T01:10:27.152Z,82.29
2023-03-12T01:15:34.862Z,82.12
2023-03-12T01:20:43.014Z,82.04
2023-03-12T01:25:52.337Z,81.91
2023-03-12T01:30:59.649Z,81.34
2023-03-12T01:36:17.348Z,80.64
2023-03-12T01:41:23.675Z,80.92
2023-03-12T01:46:34.572Z,81.36
2023-03-12T01:51:44.316Z,81.71
2023-03-12T01:56:53.413Z,81.78
2023-03-12T02:02:01.394Z,82.14
2023-03-12T02:07:11.950Z,82.73
2023-03-12T02:12:20.073Z,83.65
2023-03-12T02:17:28.524Z,84.60
2023-03-12T02:22:37.895Z,85.96
2023-03-12T02:27:45.606Z,86.29
2023-03-12T02:32:54.976Z,86.65
2023-03-12T02:46:02.515Z,86.76
2023-03-12T02:51:10.929Z,86.60
2023-03-12T02:56:19.243Z,86.58
2023-03-12T03:01:27.125Z,86.36
2023-03-12T03:10:04.749Z,85.61
2023-03-12T03:15:14.425Z,84.77
2023-03-12T03:20:22.991Z,84.42
2023-03-12T03:25:31.321Z,84.02
2023-03-12T03:30:39.215Z,84.00
2023-03-12T03:35:46.796Z,83.89
2023-03-12T03:40:55.085Z,83.77
2023-03-12T03:46:04.164Z,83.11
2023-03-12T03:51:13.215Z,82.55
2023-03-12T03:56:20.942Z,82.90
2023-03-12T04:01:29.371Z,82.58
2023-03-12T04:06:37.379Z,82.31
2023-03-12T04:11:44.780Z,82.18
2023-03-12T04:16:52.287Z,82.10
2023-03-12T04:21:59.901Z,82.23
2023-03-12T04:27:07.782Z,82.42
2023-03-12T04:32:15.865Z,82.39
2023-03-12T04:37:23.440Z,82.05
2023-03-12T04:42:30.866Z,81.89
2023-03-12T04:47:39.106Z,81.55
2023-03-12T04:52:46.578Z,81.54
2023-03-12T04:57:53.777Z,81.51
2023-03-12T05:02:59.354Z,81.68
2023-03-12T05:08:07.932Z,81.86
2023-03-12T05:13:21.220Z,81.68
2023-03-12T05:18:28.817Z,81.57
2023-03-12T05:23:37.041Z,81.68
2023-03-12T05:28:44.360Z,81.76
2023-03-12T05:33:53.054Z,82.00
2023-03-12T05:39:00.823Z,81.95
2023-03-12T05:44:08.672Z,81.87
2023-03-12T05:49:16.439Z,81.50
2023-03-12T05:54:24.667Z,80.84
2023-03-12T05:59:32.327Z,80.87
2023-03-12T06:04:40.392Z,80.23
2023-03-12T06:09:48.149Z,80.09
2023-03-12T06:14:56.304Z,79.77
2023-03-12T06:20:04.238Z,79.00
2023-03-12T06:25:12.865Z,78.65
2023-03-12T06:30:21.545Z,78.05
2023-03-12T06:35:29.762Z,77.77
2023-03-12T06:40:37.786Z,77.03
2023-03-12T06:45:46.380Z,76.47
2023-03-12T06:50:54.610Z,76.52
2023-03-12T06:56:03.762Z,75.64
2023-03-12T07:01:11.500Z,74.88
2023-03-12T07:06:21.725Z,74.37
2023-03-12T07:11:29.681Z,74.07
2023-03-12T07:16:37.293Z,73.92
2023-03-12T07:21:44.484Z,73.39
2023-03-12T07:26:50.123Z,72.56
2023-03-12T07:31:57.421Z,72.55
2023-03-12T07:37:03.484Z,72.74
2023-03-12T07:42:12.930Z,72.69
2023-03-12T07:47:23.969Z,71.86
2023-03-12T07:52:34.156Z,71.08
2023-03-12T07:57:42.623Z,69.85
2023-03-12T08:02:50.325Z,68.95
2023-03-12T08:07:57.762Z,69.18
2023-03-12T08:13:03.459Z,68.56
2023-03-12T08:18:10.916Z,67.05
2023-03-12T08:23:18.518Z,66.60
2023-03-12T08:28:26.753Z,66.42
2023-03-12T08:33:34.151Z,64.46
2023-03-12T08:38:42.176Z,64.42
2023-03-12T08:43:49.992Z,63.19
2023-03-12T08:48:57.914Z,62.89
2023-03-12T08:54:06.312Z,62.96
2023-03-12T08:59:14.552Z,62.54
2023-03-12T09:04:22.075Z,62.59
2023-03-12T09:09:29.882Z,62.64
2023-03-12T09:15:05.535Z,62.01
2023-03-12T09:20:08.723Z,61.21
2023-03-12T09:25:17.179Z,61.19
2023-03-12T09:30:27.291Z,61.09
2023-03-12T09:35:34.781Z,61.07
2023-03-12T09:40:46.151Z,61.75
2023-03-12T09:45:55.112Z,61.15
2023-03-12T09:51:06.583Z,60.62
2023-03-12T09:56:18.434Z,61.17
2023-03-12T10:01:40.250Z,60.01
2023-03-12T10:06:54.251Z,59.86
2023-03-12T10:12:10.644Z,58.87
2023-03-12T10:17:43.051Z,59.24
2023-03-12T10:22:59.558Z,60.43
2023-03-12T10:28:16.929Z,61.04
2023-03-12T10:33:26.643Z,61.07
2023-03-12T10:38:34.067Z,60.99
2023-03-12T10:43:42.261Z,59.90
2023-03-12T10:48:52.002Z,59.28
2023-03-12T10:53:59.669Z,58.91
2023-03-12T10:59:24.314Z,60.07
2023-03-12T11:04:34.183Z,60.22
2023-03-12T11:09:42.316Z,58.91
2023-03-12T11:14:50.630Z,59.58
2023-03-12T11:19:58.232Z,59.13
2023-03-12T11:25:09.117Z,58.82
2023-03-12T11:30:21.845Z,58.47
2023-03-12T11:35:41.377Z,58.41
2023-03-12T11:41:06.975Z,58.31
2023-03-12T11:46:31.163Z,57.09
2023-03-12T11:51:52.446Z,58.45
2023-03-12T11:57:03.772Z,57.44
2023-03-12T12:02:32.310Z,58.01
2023-03-12T12:07:53.380Z,57.42
2023-03-12T12:13:12.809Z,57.20
2023-03-12T12:18:44.278Z,58.21
2023-03-12T12:24:02.225Z,58.09
2023-03-12T12:29:27.352Z,58.46
2023-03-12T12:35:06.552Z,58.76
2023-03-12T12:40:22.532Z,58.00
2023-03-12T12:45:31.656Z,57.59
2023-03-12T12:50:41.380Z,57.04
2023-03-12T12:56:00.347Z,56.37
2023-03-12T13:01:09.629Z,56.22
2023-03-12T13:06:17.919Z,56.03
2023-03-12T13:11:41.013Z,56.05
2023-03-12T13:16:49.368Z,55.77
2023-03-12T13:22:10.833Z,55.75
2023-03-12T13:27:23.893Z,55.46
2023-03-12T13:33:14.266Z,56.23
2023-03-12T13:44:01.981Z,55.09
2023-03-12T13:49:17.577Z,55.94
2023-03-12T13:54:28.823Z,53.64
2023-03-12T13:59:36.744Z,53.65
2023-03-12T14:04:45.652Z,52.66
2023-03-12T14:10:07.554Z,53.04
2023-03-12T14:15:27.586Z,53.31
2023-03-12T14:20:41.790Z,53.30
2023-03-12T14:25:50.926Z,52.69
2023-03-12T14:31:03.538Z,52.89
2023-03-12T14:36:17.157Z,52.07
2023-03-12T14:41:27.892Z,52.78
2023-03-12T14:46:35.476Z,52.44
2023-03-12T14:51:45.159Z,52.69
2023-03-12T14:56:53.595Z,52.83
2023-03-12T15:02:05.890Z,52.36
2023-03-12T15:07:16.882Z,52.69
2023-03-12T15:12:26.550Z,52.87
2023-03-12T15:17:35.987Z,52.65
2023-03-12T15:22:43.989Z,53.13
2023-03-12T15:28:01.549Z,52.73
2023-03-12T15:33:11.227Z,52.43
2023-03-12T15:38:23.706Z,52.82
2023-03-12T15:43:32.787Z,53.52
2023-03-12T15:48:42.851Z,52.73
2023-03-12T15:54:03.051Z,52.37
2023-03-12T15:59:24.916Z,53.04
2023-03-12T16:04:32.714Z,53.22
2023-03-12T16:09:41.541Z,52.88
2023-03-12T16:14:50.982Z,53.02
2023-03-12T16:19:58.429Z,53.26
2023-03-12T16:25:07.105Z,52.98
2023-03-12T16:30:20.146Z,52.83
2023-03-12T16:35:28.849Z,53.43
2023-03-12T16:40:38.896Z,53.67
2023-03-12T16:45:48.509Z,53.86
2023-03-12T16:50:57.878Z,54.15
2023-03-12T16:56:07.136Z,54.87
2023-03-12T17:01:19.042Z,54.73
2023-03-12T17:06:27.655Z,54.69
2023-03-12T17:11:35.376Z,54.91
2023-03-12T17:16:42.893Z,55.22
2023-03-12T17:21:51.048Z,55.93
2023-03-12T17:26:58.802Z,56.04
2023-03-12T17:32:06.091Z,56.32
2023-03-12T17:37:13.253Z,56.65
2023-03-12T17:44:35.024Z,56.55
2023-03-12T17:49:44.040Z,56.19
2023-03-12T17:54:52.077Z,56.29
2023-03-12T18:00:00.609Z,55.37
2023-03-12T18:05:09.717Z,55.34
2023-03-12T18:10:17.463Z,55.63
2023-03-12T18:15:25.010Z,55.63
2023-03-12T18:20:39.055Z,55.70
2023-03-12T18:25:47.640Z,55.86
2023-03-12T18:30:57.506Z,56.34
2023-03-12T18:36:06.489Z,56.17
2023-03-12T18:41:15.584Z,56.33
2023-03-12T18:46:25.337Z,56.45
2023-03-12T18:51:33.939Z,56.86
2023-03-12T18:56:51.306Z,57.49
2023-03-12T19:01:59.340Z,58.17
2023-03-12T19:07:06.937Z,58.66
2023-03-12T19:12:15.646Z,59.21
2023-03-12T19:17:25.485Z,59.29
2023-03-12T19:22:34.641Z,60.26
2023-03-12T19:27:44.634Z,60.54
2023-03-12T19:32:55.521Z,60.32
2023-03-12T19:38:03.638Z,60.26
2023-03-12T19:43:12.060Z,60.84
2023-03-12T19:48:20.002Z,60.65
2023-03-12T19:53:27.428Z,60.50
2023-03-12T19:58:39.448Z,60.19
2023-03-12T20:03:47.829Z,59.91
2023-03-12T20:08:57.284Z,59.77
2023-03-12T20:14:04.918Z,59.69
2023-03-12T20:19:12.912Z,59.21
2023-03-12T20:24:21.146Z,59.20
2023-03-12T20:29:28.909Z,59.25
2023-03-12T20:34:38.035Z,59.73
2023-03-12T20:39:46.653Z,59.09
2023-03-12T20:44:57.165Z,59.09
2023-03-12T20:50:06.377Z,59.44
2023-03-12T20:55:14.641Z,59.75
2023-03-12T21:00:23.984Z,59.84
2023-03-12T21:05:32.040Z,60.09
2023-03-12T21:10:40.613Z,59.86
2023-03-12T21:15:48.793Z,59.79
2023-03-12T21:20:56.177Z,60.15
2023-03-12T21:26:09.075Z,60.18
2023-03-12T21:31:19.002Z,60.22
2023-03-12T21:36:27.519Z,59.95
2023-03-12T21:41:35.249Z,60.17
2023-03-12T21:46:43.739Z,60.32
2023-03-12T21:51:54.323Z,60.27
2023-03-12T21:57:03.834Z,60.17
2023-03-12T22:02:14.901Z,60.51
2023-03-12T22:07:22.544Z,59.90
2023-03-12T22:12:32.335Z,60.02
2023-03-12T22:17:40.977Z,59.93
2023-03-12T22:22:48.375Z,60.35
2023-03-12T22:27:56.766Z,60.08
2023-03-12T22:33:07.031Z,60.46
2023-03-12T22:38:15.992Z,60.43
2023-03-12T22:43:26.258Z,60.32
2023-03-12T22:48:34.211Z,60.00
2023-03-12T22:53:42.260Z,60.09
2023-03-12T22:58:50.398Z,60.14
2023-03-12T23:03:58.169Z,60.24
2023-03-12T23:09:05.793Z,60.48
2023-03-12T23:14:14.195Z,60.34
2023-03-12T23:19:22.413Z,60.19
2023-03-12T23:24:31.196Z,60.00
2023-03-12T23:29:39.684Z,60.15
2023-03-12T23:34:47.061Z,60.12
2023-03-12T23:39:55.262Z,60.30
2023-03-12T23:45:02.914Z,59.88
2023-03-12T23:50:12.196Z,59.45
2023-03-12T23:55:20.071Z,59.24
